Estación Meteorológica Peña el Pijo (Robertgarden) [ 04/24/19 16:34:31 CEST ]

Fecha Hora Presion(HPa) Temp (°C) Humedad % Rocio (°C) Viento ( m/s) Direccion Lluvia 1Hora(mm) Lluvia 24H(mm) LLuvia Total(mm)
2019-Feb-15 01:01:56 1017.600 0.0 82 -2.7         183.37
2019-Feb-15 02:02:19 1017.100 -0.1 82 -2.8         183.37
2019-Feb-15 03:06:56 1016.600 -0.8 83 -3.3         183.37
2019-Feb-15 04:01:35 1016.100 -0.8 83 -3.3         183.37
2019-Feb-15 05:01:36 1015.800 -0.5 84 -2.9         183.37
2019-Feb-15 06:01:54 1015.700 -0.7 84 -3.1         183.37
2019-Feb-15 07:01:49 1015.500 -0.7 85 -2.9         183.37
2019-Feb-15 08:01:45 1015.700 -1.7 85 -3.9         183.37
2019-Feb-15 09:01:36 1016.000 -1.5 85 -3.7         183.37
2019-Feb-15 10:01:37 1016.000 5.3 85 2.9         183.37
2019-Feb-15 11:01:41 1015.700 11.4 58 3.4         183.37
2019-Feb-15 12:01:45 1015.600 12.1 55 3.3         183.37
2019-Feb-15 13:01:41 1014.700 12.9 51 3.0 5.0 NE     183.37
2019-Feb-15 14:01:35 1013.800 13.9 50 3.7 2.4 NE     183.37
2019-Feb-15 15:01:29 1013.400 14.4 50 4.2 1.4 ENE     183.37
2019-Feb-15 16:01:31 1013.000 14.8 49 4.2 3.0 ENE     183.37
2019-Feb-15 17:01:49 1013.000 13.6 52 3.9         183.37
2019-Feb-15 18:01:37 1013.300 10.9 61 3.6         183.37
2019-Feb-15 19:01:40 1013.900 8.2 68 2.6         183.37
2019-Feb-15 20:01:45 1014.300 6.5 74 2.2         183.37
2019-Feb-15 21:01:40 1014.600 4.2 75 0.1         183.37
2019-Feb-15 22:01:58 1015.000 2.6 78 -0.9         183.37
2019-Feb-15 23:01:49 1015.100 1.3 80 -1.8         183.37

Temperatura Máxima:14°    Temperatura Mínima:-1°
Presión Máxima:1017.600 Hpa    Presión Mínima:1013.000 Hpa


Volver